Time;durP1;ratioP1;P1;durP2;ratioP2;P2;SDS_P1;SDS_P2;PMS_P1;PMS_P2;Temp;Humidity;BMP_temperature;BMP_pressure;BME280_temperature;BME280_humidity;BME280_pressure;Samples;Min_cycle;Max_cycle;Signal;HPM_P1;HPM_P2
2023/04/16 00:00:48;;;;;;;30.63;28.03;;;7.30;99.90;;;;;;5061307;28;20185;-48
2023/04/16 00:03:14;;;;;;;28.23;25.73;;;7.30;99.90;;;;;;5061908;28;20454;-49
2023/04/16 00:05:40;;;;;;;28.10;25.70;;;7.30;99.90;;;;;;5041829;28;20458;-48
2023/04/16 00:08:06;;;;;;;27.60;25.30;;;7.30;99.90;;;;;;5061645;28;20415;-45
2023/04/16 00:10:33;;;;;;;27.80;25.60;;;7.30;99.90;;;;;;5061043;28;20185;-47
2023/04/16 00:12:59;;;;;;;27.30;25.20;;;7.20;99.90;;;;;;5061131;28;20411;-49
2023/04/16 00:15:24;;;;;;;28.00;25.63;;;7.20;99.90;;;;;;5061260;28;20431;-49
2023/04/16 00:17:50;;;;;;;28.10;25.80;;;7.10;99.90;;;;;;5061383;28;20186;-45
2023/04/16 00:20:16;;;;;;;27.03;24.83;;;7.10;99.90;;;;;;5060351;28;20181;-45
2023/04/16 00:22:41;;;;;;;27.13;24.77;;;7.00;99.90;;;;;;5060255;28;20233;-53
2023/04/16 00:25:07;;;;;;;25.93;23.80;;;7.00;99.90;;;;;;5060194;28;20277;-47
2023/04/16 00:27:33;;;;;;;28.07;25.53;;;6.90;99.90;;;;;;5060847;28;20187;-48
2023/04/16 00:29:58;;;;;;;27.43;24.97;;;6.90;99.90;;;;;;5060752;28;20764;-47
2023/04/16 00:32:24;;;;;;;26.90;24.30;;;6.80;99.90;;;;;;5061167;28;20273;-52
2023/04/16 00:34:50;;;;;;;26.33;24.10;;;6.80;99.90;;;;;;5059836;28;20271;-52
2023/04/16 00:37:15;;;;;;;26.03;23.77;;;6.70;99.90;;;;;;5060964;28;20185;-49
2023/04/16 00:39:41;;;;;;;25.30;23.17;;;6.70;99.90;;;;;;5061030;28;20196;-52
2023/04/16 00:42:06;;;;;;;26.07;23.87;;;6.60;99.90;;;;;;5060652;28;20421;-51
2023/04/16 00:44:34;;;;;;;25.47;23.27;;;6.60;99.90;;;;;;5060640;28;20588;-51
2023/04/16 00:47:01;;;;;;;25.85;23.73;;;6.50;99.90;;;;;;5060653;28;20188;-50
2023/04/16 00:49:28;;;;;;;25.45;23.30;;;6.50;99.90;;;;;;5060342;28;20181;-52
2023/04/16 00:51:54;;;;;;;26.80;24.50;;;6.40;99.90;;;;;;5061010;28;20182;-53
2023/04/16 00:54:20;;;;;;;26.25;23.90;;;6.30;99.90;;;;;;5059646;28;20479;-52
2023/04/16 00:56:46;;;;;;;27.37;24.77;;;6.30;99.90;;;;;;5059670;28;20597;-53
2023/04/16 00:59:11;;;;;;;26.90;24.57;;;6.20;99.90;;;;;;5060458;28;20463;-47
2023/04/16 01:01:37;;;;;;;26.17;23.87;;;6.10;99.90;;;;;;5059464;28;20186;-52
2023/04/16 01:04:03;;;;;;;26.67;24.37;;;6.10;99.90;;;;;;5060117;28;20830;-50
2023/04/16 01:06:29;;;;;;;27.60;25.20;;;6.10;99.90;;;;;;5059913;28;20174;-51
2023/04/16 01:08:55;;;;;;;28.37;25.87;;;6.00;99.90;;;;;;5059388;28;20528;-50
2023/04/16 01:11:20;;;;;;;27.83;25.23;;;6.00;99.90;;;;;;5060303;28;20413;-52
2023/04/16 01:13:46;;;;;;;28.70;26.07;;;5.90;99.90;;;;;;5059903;28;20461;-49
2023/04/16 01:16:12;;;;;;;27.47;25.10;;;5.90;99.90;;;;;;5059495;28;20186;-53
2023/04/16 01:18:37;;;;;;;28.67;26.13;;;5.80;99.90;;;;;;5059990;28;20219;-53
2023/04/16 01:21:04;;;;;;;28.03;25.43;;;5.80;99.90;;;;;;5060382;28;20248;-51
2023/04/16 01:23:30;;;;;;;27.88;25.48;;;5.80;99.90;;;;;;5059952;28;20573;-53
2023/04/16 01:25:56;;;;;;;30.20;27.40;;;5.70;99.90;;;;;;5059306;28;20190;-51
2023/04/16 01:28:22;;;;;;;30.80;28.00;;;5.70;99.90;;;;;;5060081;28;20727;-52
2023/04/16 01:30:47;;;;;;;29.53;26.73;;;5.60;99.90;;;;;;5058595;28;20437;-50
2023/04/16 01:33:14;;;;;;;28.60;26.03;;;5.60;99.90;;;;;;5059832;28;20415;-50
2023/04/16 01:35:40;;;;;;;27.77;25.17;;;5.60;99.90;;;;;;5059555;28;20185;-51
2023/04/16 01:38:07;;;;;;;29.35;26.55;;;5.50;99.90;;;;;;5060058;28;20749;-49
2023/04/16 01:40:34;;;;;;;30.70;27.88;;;5.50;99.90;;;;;;5060248;28;20225;-51
2023/04/16 01:42:59;;;;;;;31.17;28.40;;;5.50;99.90;;;;;;5059182;28;20250;-51
2023/04/16 01:45:25;;;;;;;29.27;26.53;;;5.50;99.90;;;;;;5059574;28;20576;-50
2023/04/16 01:47:51;;;;;;;31.17;28.27;;;5.50;99.90;;;;;;5058703;28;20189;-50
2023/04/16 01:50:17;;;;;;;30.60;27.70;;;5.50;99.90;;;;;;5059335;28;20185;-52
2023/04/16 01:52:43;;;;;;;30.05;27.08;;;5.40;99.90;;;;;;5059222;28;20237;-54
2023/04/16 01:55:09;;;;;;;30.83;27.90;;;5.40;99.90;;;;;;5058483;28;20193;-52
2023/04/16 01:57:35;;;;;;;28.63;25.93;;;5.40;99.90;;;;;;5059291;28;20276;-50
2023/04/16 02:00:01;;;;;;;30.83;27.80;;;5.40;99.90;;;;;;5059884;28;20407;-51
2023/04/16 02:02:27;;;;;;;30.20;27.33;;;5.30;99.90;;;;;;5058525;28;20227;-50
2023/04/16 02:04:54;;;;;;;30.52;27.60;;;5.30;99.90;;;;;;5059186;28;20173;-53
2023/04/16 02:07:22;;;;;;;29.40;26.63;;;5.20;99.90;;;;;;5059067;28;20181;-50
2023/04/16 02:09:49;;;;;;;29.92;27.23;;;5.20;99.90;;;;;;5059081;28;20173;-54
2023/04/16 02:12:15;;;;;;;29.35;26.55;;;5.20;99.90;;;;;;5040468;28;20280;-52
2023/04/16 02:14:40;;;;;;;28.80;26.17;;;5.20;99.90;;;;;;5059459;28;20362;-54
2023/04/16 02:17:06;;;;;;;28.87;26.17;;;5.20;99.90;;;;;;5058775;28;20684;-54
2023/04/16 02:19:32;;;;;;;27.70;25.10;;;5.20;99.90;;;;;;5059122;28;20201;-49
2023/04/16 02:21:57;;;;;;;28.97;25.97;;;5.10;99.90;;;;;;5058608;28;20289;-48
2023/04/16 02:24:23;;;;;;;27.73;25.13;;;5.10;99.90;;;;;;5058296;28;20185;-52
2023/04/16 02:26:48;;;;;;;27.10;24.60;;;5.00;99.90;;;;;;5058473;28;20353;-50
2023/04/16 02:29:15;;;;;;;28.77;26.00;;;5.00;99.90;;;;;;5058912;28;20714;-52
2023/04/16 02:31:41;;;;;;;27.42;24.88;;;4.90;99.90;;;;;;5059058;28;20702;-48
2023/04/16 02:34:06;;;;;;;26.20;23.70;;;4.90;99.90;;;;;;5059639;28;20305;-48
2023/04/16 02:36:32;;;;;;;26.93;24.27;;;4.90;99.90;;;;;;5058860;28;20216;-51
2023/04/16 02:38:58;;;;;;;26.70;24.20;;;4.90;99.90;;;;;;5059442;28;20203;-48
2023/04/16 02:41:24;;;;;;;28.08;25.20;;;4.90;99.90;;;;;;5058503;28;20197;-54
2023/04/16 02:43:49;;;;;;;29.63;26.53;;;4.80;99.90;;;;;;5058829;28;20216;-50
2023/04/16 02:46:15;;;;;;;28.30;25.60;;;4.80;99.90;;;;;;5059118;28;20265;-51
2023/04/16 02:48:41;;;;;;;28.57;25.90;;;4.80;99.90;;;;;;5058977;28;20209;-48
2023/04/16 02:51:06;;;;;;;26.70;24.00;;;4.80;99.90;;;;;;5058886;28;20231;-52
2023/04/16 02:53:33;;;;;;;27.30;24.50;;;4.80;99.90;;;;;;5058588;28;20227;-51
2023/04/16 02:55:58;;;;;;;27.45;24.88;;;4.80;99.90;;;;;;5057716;28;20209;-51
2023/04/16 02:58:25;;;;;;;27.43;24.83;;;4.80;99.90;;;;;;5058408;28;20285;-53
2023/04/16 03:00:52;;;;;;;26.45;23.95;;;4.80;99.90;;;;;;5058470;28;20185;-51
2023/04/16 03:03:18;;;;;;;27.55;24.80;;;4.80;99.90;;;;;;5058234;28;20435;-50
2023/04/16 03:05:44;;;;;;;26.00;23.20;;;4.70;99.90;;;;;;5059294;28;20185;-50
2023/04/16 03:08:10;;;;;;;26.13;23.53;;;4.70;99.90;;;;;;5058814;28;20556;-54
2023/04/16 03:10:36;;;;;;;25.80;23.20;;;4.70;99.90;;;;;;5058733;28;20407;-54
2023/04/16 03:13:01;;;;;;;25.67;23.20;;;4.70;99.90;;;;;;5058736;28;20876;-50
2023/04/16 03:15:27;;;;;;;25.67;23.03;;;4.60;99.90;;;;;;5058026;28;20488;-48
2023/04/16 03:17:53;;;;;;;26.77;24.10;;;4.60;99.90;;;;;;5058905;28;20420;-47
2023/04/16 03:20:19;;;;;;;24.83;22.37;;;4.50;99.90;;;;;;5061057;28;20311;-47
2023/04/16 03:22:46;;;;;;;24.90;22.60;;;4.50;99.90;;;;;;5061315;28;20228;-45
2023/04/16 03:25:12;;;;;;;25.02;22.70;;;4.50;99.90;;;;;;5061797;28;21027;-51
2023/04/16 03:27:40;;;;;;;25.73;23.30;;;4.50;99.90;;;;;;5062371;28;20268;-49
2023/04/16 03:30:07;;;;;;;26.10;23.30;;;4.40;99.90;;;;;;5062069;28;20209;-52
2023/04/16 03:32:33;;;;;;;24.83;22.25;;;4.40;99.90;;;;;;5062717;28;20579;-49
2023/04/16 03:34:59;;;;;;;24.27;21.97;;;4.40;99.90;;;;;;5061733;28;20207;-50
2023/04/16 03:37:25;;;;;;;24.70;22.13;;;4.30;99.90;;;;;;5060773;28;20309;-53
2023/04/16 03:39:50;;;;;;;26.33;23.73;;;4.30;99.90;;;;;;5061456;28;20369;-52
2023/04/16 03:42:16;;;;;;;26.13;23.43;;;4.20;99.90;;;;;;5061592;28;20813;-52
2023/04/16 03:44:41;;;;;;;24.30;21.70;;;4.20;99.90;;;;;;5061933;28;20673;-50
2023/04/16 03:47:07;;;;;;;25.40;22.80;;;4.20;99.90;;;;;;5061542;28;20184;-48
2023/04/16 03:49:33;;;;;;;25.10;22.60;;;4.10;99.90;;;;;;5061307;28;20184;-51
2023/04/16 03:51:58;;;;;;;23.83;21.53;;;4.10;99.90;;;;;;5061766;28;20691;-53
2023/04/16 03:54:24;;;;;;;24.90;22.40;;;4.10;99.90;;;;;;5061430;28;20533;-52
2023/04/16 03:56:50;;;;;;;25.50;23.00;;;4.00;99.90;;;;;;5043232;28;20220;-50
2023/04/16 03:59:16;;;;;;;25.30;22.90;;;4.00;99.90;;;;;;5061449;28;20216;-51
2023/04/16 04:01:42;;;;;;;24.90;22.40;;;4.00;99.90;;;;;;5061126;28;20295;-50
2023/04/16 04:04:08;;;;;;;26.30;23.70;;;3.90;99.90;;;;;;5061555;28;20930;-48
2023/04/16 04:06:34;;;;;;;24.67;22.30;;;3.90;99.90;;;;;;5059905;28;20674;-52
2023/04/16 04:09:00;;;;;;;25.90;23.42;;;3.90;99.90;;;;;;5061561;28;20476;-47
2023/04/16 04:11:26;;;;;;;25.47;22.97;;;3.90;99.90;;;;;;5061426;28;20177;-46
2023/04/16 04:13:51;;;;;;;26.43;23.70;;;3.80;99.90;;;;;;5061725;28;20235;-51
2023/04/16 04:16:17;;;;;;;25.20;22.60;;;3.80;99.90;;;;;;5061177;28;20181;-51
2023/04/16 04:18:42;;;;;;;26.43;23.90;;;3.80;99.90;;;;;;5060976;28;20219;-51
2023/04/16 04:21:09;;;;;;;24.73;22.13;;;3.80;99.90;;;;;;5060114;28;20267;-50
2023/04/16 04:23:35;;;;;;;26.33;23.60;;;3.80;99.90;;;;;;5060776;28;20591;-50
2023/04/16 04:26:02;;;;;;;27.00;24.30;;;3.80;99.90;;;;;;5061364;28;20292;-54
2023/04/16 04:28:29;;;;;;;24.65;22.02;;;3.70;99.90;;;;;;5061246;28;20173;-50
2023/04/16 04:30:56;;;;;;;27.48;23.67;;;3.70;99.90;;;;;;5060116;28;20216;-50
2023/04/16 04:33:21;;;;;;;25.33;22.77;;;3.70;99.90;;;;;;5060261;28;20193;-51
2023/04/16 04:35:47;;;;;;;26.00;23.40;;;3.70;99.90;;;;;;5060929;28;20249;-46
2023/04/16 04:38:12;;;;;;;26.13;22.97;;;3.70;99.90;;;;;;5060002;28;20196;-48
2023/04/16 04:40:38;;;;;;;26.20;23.47;;;3.70;99.90;;;;;;5061089;28;20189;-52
2023/04/16 04:43:04;;;;;;;24.70;22.10;;;3.70;99.90;;;;;;5042672;28;20626;-51
2023/04/16 04:45:30;;;;;;;22.87;20.73;;;3.70;99.90;;;;;;5060756;28;20196;-52
2023/04/16 04:47:55;;;;;;;25.07;22.37;;;3.70;99.90;;;;;;5059996;28;20590;-47
2023/04/16 04:50:21;;;;;;;25.10;22.60;;;3.70;99.90;;;;;;5060894;28;20498;-50
2023/04/16 04:52:46;;;;;;;23.07;20.80;;;3.70;99.90;;;;;;5060800;28;20180;-53
2023/04/16 04:55:14;;;;;;;24.43;21.83;;;3.80;99.90;;;;;;5059537;28;20386;-46
2023/04/16 04:57:40;;;;;;;24.73;22.30;;;3.80;99.90;;;;;;5060430;28;20546;-53
2023/04/16 05:00:07;;;;;;;25.30;22.67;;;3.90;99.90;;;;;;5058893;28;20189;-49
2023/04/16 05:02:32;;;;;;;24.67;22.08;;;3.90;99.90;;;;;;5059274;28;20886;-52
2023/04/16 05:04:58;;;;;;;24.97;22.00;;;3.90;99.90;;;;;;5060746;28;20270;-53
2023/04/16 05:07:24;;;;;;;24.80;22.20;;;3.90;99.90;;;;;;5060316;28;20933;-50
2023/04/16 05:09:49;;;;;;;24.37;21.87;;;3.90;99.90;;;;;;5060131;28;20183;-53
2023/04/16 05:12:15;;;;;;;24.10;21.60;;;3.90;99.90;;;;;;5060473;28;20208;-53
2023/04/16 05:14:41;;;;;;;23.00;20.57;;;3.90;99.90;;;;;;5060259;28;20189;-49
2023/04/16 05:17:06;;;;;;;24.10;21.30;;;4.00;99.90;;;;;;5060480;28;20645;-51
2023/04/16 05:19:32;;;;;;;24.43;21.80;;;4.00;99.90;;;;;;5059740;28;20204;-51
2023/04/16 05:21:58;;;;;;;24.80;22.20;;;4.00;99.90;;;;;;5059228;28;20233;-51
2023/04/16 05:24:24;;;;;;;24.63;22.13;;;4.10;99.90;;;;;;5059967;28;21116;-51
2023/04/16 05:26:50;;;;;;;26.07;22.13;;;4.10;99.90;;;;;;5058289;28;20177;-49
2023/04/16 05:29:16;;;;;;;24.23;21.80;;;4.10;99.90;;;;;;5058987;28;20177;-50
2023/04/16 05:31:41;;;;;;;24.70;22.20;;;4.20;99.90;;;;;;5058279;28;20173;-50
2023/04/16 05:34:07;;;;;;;25.93;23.13;;;4.20;99.90;;;;;;5057650;28;20427;-53
2023/04/16 05:36:32;;;;;;;24.07;21.63;;;4.20;99.90;;;;;;5059689;28;20177;-46
2023/04/16 05:38:58;;;;;;;27.30;24.03;;;4.30;99.90;;;;;;5059270;28;20173;-47
2023/04/16 05:41:24;;;;;;;24.43;21.87;;;4.40;99.90;;;;;;5059027;28;20213;-46
2023/04/16 05:43:50;;;;;;;29.30;24.27;;;4.50;99.90;;;;;;5059104;28;20193;-47
2023/04/16 05:46:15;;;;;;;25.70;23.00;;;4.50;99.90;;;;;;5059288;28;20542;-47
2023/04/16 05:48:41;;;;;;;28.40;24.57;;;4.60;99.90;;;;;;5057592;28;20189;-48
2023/04/16 05:51:07;;;;;;;25.35;22.50;;;4.60;99.90;;;;;;5058112;28;20181;-47
2023/04/16 05:53:32;;;;;;;28.30;22.90;;;4.80;99.90;;;;;;5058900;28;20720;-48
2023/04/16 05:55:58;;;;;;;26.00;23.30;;;4.90;99.90;;;;;;5059065;28;20458;-49
2023/04/16 05:58:23;;;;;;;26.87;23.93;;;5.00;99.90;;;;;;5059984;28;20193;-49
2023/04/16 06:00:50;;;;;;;30.10;25.73;;;5.10;99.90;;;;;;5059261;28;20196;-50
2023/04/16 06:03:15;;;;;;;26.27;23.48;;;5.20;99.90;;;;;;5059449;28;20200;-48
2023/04/16 06:05:41;;;;;;;27.07;24.17;;;5.30;99.90;;;;;;5058687;28;20506;-50
2023/04/16 06:08:06;;;;;;;29.00;24.57;;;5.30;99.90;;;;;;5057496;28;20184;-50
2023/04/16 06:10:32;;;;;;;28.30;24.23;;;5.50;99.90;;;;;;5040308;28;20650;-50
2023/04/16 06:12:58;;;;;;;27.47;23.80;;;5.60;99.90;;;;;;5058798;28;20189;-50
2023/04/16 06:15:26;;;;;;;28.27;25.17;;;5.70;99.90;;;;;;5058523;28;20552;-50
2023/04/16 06:17:53;;;;;;;28.08;24.83;;;5.90;99.90;;;;;;5053270;28;20678;-49
2023/04/16 06:20:18;;;;;;;26.73;24.02;;;6.00;99.90;;;;;;5057082;28;20193;-49
2023/04/16 06:22:44;;;;;;;26.00;23.20;;;6.00;99.90;;;;;;5054897;28;20243;-53
2023/04/16 06:25:10;;;;;;;27.83;24.97;;;6.00;99.90;;;;;;5057547;28;20185;-52
2023/04/16 06:27:36;;;;;;;26.37;23.57;;;6.00;99.90;;;;;;5058277;28;20198;-48
2023/04/16 06:30:01;;;;;;;25.97;23.30;;;6.20;99.90;;;;;;5058071;28;20192;-48
2023/04/16 06:32:27;;;;;;;27.20;24.40;;;6.40;99.90;;;;;;5059568;28;20916;-49
2023/04/16 06:34:52;;;;;;;26.17;23.37;;;6.40;99.90;;;;;;5057878;28;20183;-54
2023/04/16 06:37:18;;;;;;;26.73;24.00;;;6.60;99.90;;;;;;5057882;28;20805;-48
2023/04/16 06:39:44;;;;;;;25.97;23.37;;;6.60;99.90;;;;;;5058595;28;20603;-49
2023/04/16 06:42:09;;;;;;;26.70;24.00;;;6.80;99.90;;;;;;5058952;28;20481;-50
2023/04/16 06:44:35;;;;;;;25.87;23.43;;;6.90;99.90;;;;;;5057494;28;20269;-52
2023/04/16 06:47:01;;;;;;;25.73;23.13;;;7.10;99.90;;;;;;5057565;28;20456;-53
2023/04/16 06:49:26;;;;;;;25.70;23.20;;;7.30;99.90;;;;;;5057699;28;20555;-49
2023/04/16 06:51:52;;;;;;;25.33;22.63;;;7.40;99.90;;;;;;5040541;28;20264;-50
2023/04/16 06:54:18;;;;;;;24.20;22.10;;;7.60;99.90;;;;;;5058414;28;20205;-48
2023/04/16 06:56:44;;;;;;;24.70;22.40;;;7.80;99.90;;;;;;5058953;28;20181;-47
2023/04/16 06:59:10;;;;;;;26.63;23.93;;;7.60;99.90;;;;;;5059569;28;20439;-48
2023/04/16 07:01:35;;;;;;;24.30;22.20;;;7.80;99.90;;;;;;5058310;28;20177;-48
2023/04/16 07:04:02;;;;;;;24.17;22.07;;;8.00;99.90;;;;;;5060691;28;20219;-52
2023/04/16 07:06:28;;;;;;;23.57;21.47;;;8.10;99.90;;;;;;5061331;28;20181;-50
2023/04/16 07:08:53;;;;;;;25.40;23.10;;;8.20;99.90;;;;;;5060586;28;20508;-52
2023/04/16 07:11:19;;;;;;;25.03;22.80;;;8.50;99.90;;;;;;5059570;28;20204;-50
2023/04/16 07:13:45;;;;;;;26.37;23.93;;;8.70;99.90;;;;;;5043504;28;20181;-48
2023/04/16 07:16:11;;;;;;;25.40;23.17;;;8.80;99.90;;;;;;5061005;28;20432;-47
2023/04/16 07:18:36;;;;;;;25.13;22.93;;;9.00;99.90;;;;;;5061217;28;20681;-51
2023/04/16 07:21:03;;;;;;;25.23;23.13;;;9.30;99.90;;;;;;5056017;28;20187;-50
2023/04/16 07:23:29;;;;;;;26.53;24.23;;;9.50;99.90;;;;;;5058075;28;20326;-50
2023/04/16 07:25:54;;;;;;;23.83;21.83;;;9.70;99.90;;;;;;5059529;28;20697;-49
2023/04/16 07:28:20;;;;;;;24.20;22.10;;;9.80;99.90;;;;;;5061959;28;20417;-50
2023/04/16 07:30:46;;;;;;;23.87;21.93;;;10.10;99.90;;;;;;5061916;28;20202;-50
2023/04/16 07:33:11;;;;;;;24.87;22.80;;;10.10;99.90;;;;;;5062002;28;20192;-49
2023/04/16 07:35:37;;;;;;;23.60;21.73;;;10.30;99.90;;;;;;5043873;28;20188;-51
2023/04/16 07:38:02;;;;;;;22.60;20.87;;;10.40;99.90;;;;;;5058311;28;20267;-47
2023/04/16 07:40:28;;;;;;;24.70;22.70;;;10.70;99.90;;;;;;5061244;28;20193;-50
2023/04/16 07:42:55;;;;;;;25.07;23.07;;;10.90;99.90;;;;;;5043105;28;20291;-53
2023/04/16 07:45:20;;;;;;;24.47;22.57;;;11.10;99.90;;;;;;5060476;28;20446;-54
2023/04/16 07:47:46;;;;;;;23.97;22.17;;;11.20;99.90;;;;;;5061471;28;20416;-51
2023/04/16 07:50:12;;;;;;;24.87;22.87;;;11.30;99.90;;;;;;5059812;28;20597;-49
2023/04/16 07:52:40;;;;;;;23.90;22.00;;;11.50;99.90;;;;;;5050441;28;20432;-53
2023/04/16 07:55:07;;;;;;;25.03;23.10;;;11.80;99.90;;;;;;5060914;28;20290;-51
2023/04/16 07:57:32;;;;;;;22.97;21.23;;;11.90;99.90;;;;;;5062467;28;20803;-50
2023/04/16 08:00:00;;;;;;;24.43;22.53;;;12.10;99.90;;;;;;5061985;28;20431;-50
2023/04/16 08:02:26;;;;;;;24.60;22.70;;;12.30;99.90;;;;;;5058876;28;20205;-51
2023/04/16 08:04:52;;;;;;;25.13;23.20;;;12.50;99.90;;;;;;5058313;28;20913;-49
2023/04/16 08:07:17;;;;;;;24.20;22.40;;;12.70;99.90;;;;;;5060886;28;20447;-51
2023/04/16 08:09:48;;;;;;;24.87;22.87;;;12.90;99.90;;;;;;5062060;28;20189;-55
2023/04/16 08:12:16;;;;;;;25.80;23.57;;;13.00;99.90;;;;;;5059692;28;20670;-51
2023/04/16 08:14:41;;;;;;;25.63;23.63;;;13.20;99.90;;;;;;5059744;28;20435;-50
2023/04/16 08:17:07;;;;;;;25.67;23.57;;;13.40;99.90;;;;;;5060603;28;20465;-53
2023/04/16 08:19:32;;;;;;;25.20;23.40;;;13.60;99.90;;;;;;5060236;28;20253;-50
2023/04/16 08:21:58;;;;;;;25.77;23.67;;;13.80;99.90;;;;;;5060287;28;20247;-52
2023/04/16 08:24:25;;;;;;;26.47;24.17;;;13.90;99.90;;;;;;5060268;28;20659;-54
2023/04/16 08:26:50;;;;;;;27.00;24.60;;;14.20;99.90;;;;;;5058969;28;20427;-52
2023/04/16 08:29:16;;;;;;;26.97;25.00;;;14.40;99.90;;;;;;5060259;28;20453;-49
2023/04/16 08:31:42;;;;;;;25.47;23.53;;;14.70;99.90;;;;;;5059997;28;20266;-51
2023/04/16 08:34:10;;;;;;;26.10;24.10;;;15.00;99.90;;;;;;5060010;28;20797;-50
2023/04/16 08:36:35;;;;;;;24.23;22.50;;;15.20;99.90;;;;;;5057267;28;20219;-52
2023/04/16 08:39:01;;;;;;;26.70;24.60;;;15.30;99.90;;;;;;5060965;28;20932;-52
2023/04/16 08:41:31;;;;;;;25.90;23.90;;;15.40;99.90;;;;;;5060800;28;20192;-50
2023/04/16 08:44:00;;;;;;;26.67;24.67;;;15.50;99.90;;;;;;5058354;28;20201;-50
2023/04/16 08:46:28;;;;;;;27.60;25.40;;;15.60;99.90;;;;;;5059800;28;20423;-50
2023/04/16 08:48:56;;;;;;;27.93;25.73;;;15.70;99.20;;;;;;5058187;28;20438;-52
2023/04/16 08:51:23;;;;;;;28.40;26.20;;;15.50;98.90;;;;;;5059411;28;20431;-50
2023/04/16 08:53:52;;;;;;;27.00;24.83;;;15.30;99.70;;;;;;5059851;28;20834;-49
2023/04/16 08:56:21;;;;;;;28.30;26.10;;;15.50;99.80;;;;;;5059804;28;20431;-48
2023/04/16 08:58:49;;;;;;;27.40;25.30;;;15.60;99.90;;;;;;5060518;28;20423;-45
2023/04/16 09:01:17;;;;;;;27.37;25.27;;;15.70;99.90;;;;;;5059221;28;20423;-49
2023/04/16 09:03:46;;;;;;;25.80;23.80;;;15.90;99.90;;;;;;5056739;28;20498;-50
2023/04/16 09:06:12;;;;;;;25.07;23.27;;;16.20;99.90;;;;;;5059718;28;20522;-49
2023/04/16 09:08:38;;;;;;;22.60;21.00;;;16.60;98.80;;;;;;5059684;28;20423;-50
2023/04/16 09:11:04;;;;;;;25.07;23.30;;;17.00;96.70;;;;;;5058553;28;20872;-46
2023/04/16 09:13:31;;;;;;;22.67;21.07;;;17.40;95.20;;;;;;5059293;28;20443;-49
2023/04/16 09:15:56;;;;;;;22.33;20.83;;;17.60;93.60;;;;;;5058080;28;20923;-50
2023/04/16 09:18:23;;;;;;;23.40;21.60;;;17.70;92.60;;;;;;5037519;28;20431;-52
2023/04/16 09:20:50;;;;;;;23.37;21.77;;;18.10;92.10;;;;;;5059509;28;20181;-51
2023/04/16 09:23:16;;;;;;;22.47;20.97;;;18.50;92.40;;;;;;5058528;28;20483;-48
2023/04/16 09:25:43;;;;;;;23.27;21.57;;;19.00;90.20;;;;;;5055694;28;20436;-47
2023/04/16 09:28:09;;;;;;;19.77;18.53;;;19.30;82.40;;;;;;5058347;28;21008;-51
2023/04/16 09:30:36;;;;;;;18.70;17.60;;;19.50;81.80;;;;;;5042581;28;20925;-53
2023/04/16 09:33:20;;;;;;;20.50;19.20;;;19.80;74.00;;;;;;5058992;28;20423;-51
2023/04/16 09:35:51;;;;;;;20.67;19.33;;;20.00;71.80;;;;;;5059687;28;20419;-51
2023/04/16 09:38:17;;;;;;;19.60;18.40;;;20.40;75.10;;;;;;5058483;28;20437;-48
2023/04/16 09:40:43;;;;;;;19.30;18.10;;;20.70;67.80;;;;;;5059538;28;20689;-47
2023/04/16 09:43:13;;;;;;;17.63;16.53;;;20.70;64.50;;;;;;5057955;28;21043;-50
2023/04/16 09:46:05;;;;;;;18.50;17.33;;;20.50;65.30;;;;;;5059576;28;20769;-52
2023/04/16 09:48:32;;;;;;;19.70;18.50;;;20.30;60.60;;;;;;5057087;28;20450;-52
2023/04/16 09:50:59;;;;;;;21.23;19.93;;;20.00;60.20;;;;;;5057823;28;20561;-50
2023/04/16 09:53:27;;;;;;;21.70;20.37;;;19.70;70.00;;;;;;5057323;28;20439;-48
2023/04/16 09:55:57;;;;;;;23.60;22.10;;;19.60;68.90;;;;;;5056627;28;20597;-52
2023/04/16 09:58:23;;;;;;;22.23;20.80;;;19.70;67.10;;;;;;5056936;28;20468;-54
2023/04/16 10:00:54;;;;;;;20.77;19.37;;;19.80;71.80;;;;;;5059560;28;20462;-53
2023/04/16 10:03:34;;;;;;;21.03;19.70;;;19.90;67.80;;;;;;5038459;28;20466;-53
2023/04/16 10:06:21;;;;;;;22.47;21.07;;;19.70;66.20;;;;;;5058879;28;20411;-52
2023/04/16 10:08:57;;;;;;;21.23;19.93;;;19.60;70.10;;;;;;5058600;28;20454;-53
2023/04/16 10:11:23;;;;;;;20.80;19.50;;;19.50;67.60;;;;;;5058495;28;20505;-52
2023/04/16 10:13:49;;;;;;;22.17;20.70;;;19.30;67.10;;;;;;5058173;28;21287;-48
2023/04/16 10:16:16;;;;;;;21.00;19.50;;;19.40;70.10;;;;;;5059607;28;20431;-54
2023/04/16 10:18:44;;;;;;;18.97;17.67;;;19.20;68.30;;;;;;5058443;28;20431;-52
2023/04/16 10:21:14;;;;;;;19.60;18.30;;;19.20;69.60;;;;;;5058908;28;20442;-55
2023/04/16 10:23:40;;;;;;;19.63;18.33;;;18.80;68.10;;;;;;5057680;28;20487;-54
2023/04/16 10:26:06;;;;;;;21.53;20.23;;;18.60;72.20;;;;;;5058193;28;20495;-50
2023/04/16 10:28:34;;;;;;;18.03;16.90;;;18.50;74.20;;;;;;5058084;28;20543;-53
2023/04/16 10:31:07;;;;;;;19.40;18.10;;;18.30;71.70;;;;;;5061522;28;20431;-51
2023/04/16 10:33:35;;;;;;;18.30;17.17;;;18.00;70.30;;;;;;5060593;28;21106;-53
2023/04/16 10:36:13;;;;;;;19.53;18.33;;;17.80;72.00;;;;;;5061490;28;20431;-51
2023/04/16 10:38:51;;;;;;;20.00;18.80;;;17.70;77.40;;;;;;5062474;28;20450;-50
2023/04/16 10:41:19;;;;;;;19.90;18.70;;;17.70;82.80;;;;;;5064647;28;20553;-53
2023/04/16 10:43:47;;;;;;;19.33;18.03;;;17.70;80.60;;;;;;5062443;28;20443;-51
2023/04/16 10:46:30;;;;;;;17.83;16.73;;;17.80;78.70;;;;;;5060478;28;20576;-53
2023/04/16 10:49:00;;;;;;;17.10;16.10;;;18.00;78.90;;;;;;5060410;28;21148;-53
2023/04/16 10:51:28;;;;;;;17.77;16.67;;;18.10;74.60;;;;;;5059973;28;20435;-49
2023/04/16 10:54:01;;;;;;;18.77;17.70;;;18.20;73.30;;;;;;5059614;28;21126;-53
2023/04/16 10:56:30;;;;;;;18.97;17.87;;;18.10;73.10;;;;;;5059716;28;20859;-53
2023/04/16 10:58:56;;;;;;;19.17;17.97;;;18.30;74.90;;;;;;5060136;28;20427;-53
2023/04/16 11:01:33;;;;;;;18.70;17.60;;;18.40;76.70;;;;;;5061345;28;20999;-50
2023/04/16 11:04:18;;;;;;;18.60;17.50;;;18.30;76.60;;;;;;5061457;28;20559;-50
2023/04/16 11:07:00;;;;;;;17.93;16.87;;;18.30;74.80;;;;;;5062934;28;20411;-49
2023/04/16 11:09:46;;;;;;;16.70;15.80;;;18.40;73.00;;;;;;5061880;28;20487;-50
2023/04/16 11:12:15;;;;;;;18.40;17.40;;;18.70;72.00;;;;;;5063425;28;20422;-51
2023/04/16 11:14:41;;;;;;;19.17;17.97;;;19.00;72.70;;;;;;5062073;28;21494;-52
2023/04/16 11:17:07;;;;;;;18.60;17.50;;;19.40;68.90;;;;;;5061875;28;20435;-51
2023/04/16 11:19:34;;;;;;;17.43;16.50;;;19.50;65.20;;;;;;5061187;28;20442;-53
2023/04/16 11:22:01;;;;;;;16.73;15.80;;;19.80;62.70;;;;;;5043602;28;20614;-52
2023/04/16 11:24:33;;;;;;;17.30;16.30;;;20.00;62.10;;;;;;5060991;28;20945;-48
2023/04/16 11:26:58;;;;;;;16.27;15.37;;;20.00;58.30;;;;;;5060507;28;20431;-50
2023/04/16 11:29:24;;;;;;;16.30;15.40;;;20.20;58.80;;;;;;5061697;28;20407;-52
2023/04/16 11:31:51;;;;;;;18.50;17.40;;;20.20;56.70;;;;;;5060501;28;20219;-52
2023/04/16 11:34:17;;;;;;;19.93;18.70;;;20.40;56.40;;;;;;5061273;28;20212;-53
2023/04/16 11:36:51;;;;;;;19.97;18.77;;;20.40;56.80;;;;;;5061937;28;20451;-52
2023/04/16 11:39:17;;;;;;;19.67;18.47;;;20.60;58.60;;;;;;5060187;28;20431;-53
2023/04/16 11:41:46;;;;;;;18.80;17.60;;;20.70;57.70;;;;;;5060911;28;20439;-48
2023/04/16 11:44:26;;;;;;;20.93;19.57;;;20.70;56.20;;;;;;5059858;28;20550;-47
2023/04/16 11:46:53;;;;;;;18.30;17.20;;;21.00;57.10;;;;;;5060681;28;20422;-49
2023/04/16 11:49:29;;;;;;;18.00;16.90;;;20.70;52.30;;;;;;5058629;28;20514;-52
2023/04/16 11:51:55;;;;;;;20.17;18.97;;;20.50;55.10;;;;;;5060220;28;20407;-50
2023/04/16 11:54:22;;;;;;;19.73;18.53;;;20.30;58.30;;;;;;5058511;28;20442;-49
2023/04/16 11:56:49;;;;;;;18.00;16.90;;;20.50;54.80;;;;;;5059478;28;21107;-50
2023/04/16 11:59:15;;;;;;;17.97;16.83;;;20.40;53.10;;;;;;5058819;28;20542;-54
2023/04/16 12:01:46;;;;;;;17.07;16.07;;;20.20;53.70;;;;;;5058990;28;20442;-51
2023/04/16 12:04:18;;;;;;;18.20;17.00;;;20.20;57.20;;;;;;5059241;28;20521;-51
2023/04/16 12:07:12;;;;;;;16.43;15.43;;;19.80;55.00;;;;;;5059627;28;20430;-51
2023/04/16 12:09:40;;;;;;;16.20;15.20;;;19.60;57.30;;;;;;5058584;28;20439;-49
2023/04/16 12:12:25;;;;;;;15.70;14.67;;;19.60;58.70;;;;;;5057653;28;20803;-52
2023/04/16 12:14:50;;;;;;;17.20;16.20;;;19.80;59.40;;;;;;5041590;28;20423;-50
2023/04/16 12:17:19;;;;;;;17.63;16.57;;;20.10;58.80;;;;;;5058816;28;20792;-50
2023/04/16 12:19:50;;;;;;;16.50;15.60;;;20.30;55.50;;;;;;5024804;28;20235;-54
2023/04/16 12:22:16;;;;;;;15.67;14.73;;;20.40;55.00;;;;;;5016553;28;1214805;-47
2023/04/16 12:24:43;;;;;;;16.10;15.20;;;20.50;55.00;;;;;;5059462;28;20534;-50
2023/04/16 12:27:09;;;;;;;16.20;15.30;;;20.60;55.70;;;;;;5058820;28;20424;-45
2023/04/16 12:29:35;;;;;;;14.90;14.00;;;20.80;54.10;;;;;;5059847;28;20435;-48
2023/04/16 12:32:01;;;;;;;14.90;14.10;;;20.90;54.60;;;;;;5058584;28;20430;-49